Time;durP1;ratioP1;P1;durP2;ratioP2;P2;SDS_P1;SDS_P2;PMS_P1;PMS_P2;Temp;Humidity;BMP_temperature;BMP_pressure;BME280_temperature;BME280_humidity;BME280_pressure;Samples;Min_cycle;Max_cycle;Signal;HPM_P1;HPM_P2
2023/04/13 00:00:09;;;;;;;1.05;0.50;;;;;;;8.74;75.13;98336.19;348294;28;1874;-71
2023/04/13 00:00:22;;;;;;;1.10;0.50;;;;;;;8.68;75.35;98333.06;350308;28;1056;-71
2023/04/13 00:00:36;;;;;;;0.60;0.40;;;;;;;8.66;75.80;98333.09;348904;28;1864;-71
2023/04/13 00:00:48;;;;;;;1.98;0.47;;;;;;;8.63;75.69;98332.41;347703;28;1680;-71
2023/04/13 00:01:01;;;;;;;2.10;0.47;;;;;;;8.56;76.10;98337.03;347621;28;1275;-71
2023/04/13 00:01:14;;;;;;;0.98;0.40;;;;;;;8.59;76.20;98334.28;348395;28;2173;-71
2023/04/13 00:01:26;;;;;;;0.65;0.40;;;;;;;8.60;76.20;98334.22;347608;28;875;-71
2023/04/13 00:01:39;;;;;;;0.68;0.50;;;;;;;8.60;76.40;98326.47;346300;28;1173;-71
2023/04/13 00:01:51;;;;;;;0.70;0.40;;;;;;;8.56;76.65;98324.09;347193;28;1910;-71
2023/04/13 00:02:04;;;;;;;0.63;0.40;;;;;;;8.62;76.50;98328.16;347573;28;1972;-70
2023/04/13 00:02:17;;;;;;;0.80;0.40;;;;;;;8.65;76.21;98336.59;347481;28;999;-70
2023/04/13 00:02:32;;;;;;;0.90;0.40;;;;;;;8.64;76.26;98329.75;347893;28;1734;-71
2023/04/13 00:02:45;;;;;;;1.23;0.50;;;;;;;8.62;75.79;98336.75;349034;28;1151;-71
2023/04/13 00:02:59;;;;;;;2.78;0.57;;;;;;;8.58;76.00;98330.88;349124;28;1080;-70
2023/04/13 00:03:11;;;;;;;3.20;0.45;;;;;;;8.58;76.23;98336.03;348616;28;1272;-70
2023/04/13 00:03:24;;;;;;;3.70;0.40;;;;;;;8.53;76.47;98334.56;348824;28;1034;-71
2023/04/13 00:03:36;;;;;;;1.95;0.40;;;;;;;8.54;76.50;98333.69;349268;28;1168;-71
2023/04/13 00:03:48;;;;;;;0.57;0.40;;;;;;;8.54;76.40;98328.50;349304;28;1964;-71
2023/04/13 00:04:03;;;;;;;0.40;0.40;;;;;;;8.48;76.68;98333.97;348982;28;1030;-71
2023/04/13 00:04:16;;;;;;;0.75;0.40;;;;;;;8.52;76.96;98333.75;348896;28;1046;-71
2023/04/13 00:04:30;;;;;;;0.90;0.40;;;;;;;8.54;76.93;98334.50;349107;28;1227;-70
2023/04/13 00:04:42;;;;;;;0.55;0.50;;;;;;;8.48;77.07;98339.13;348536;28;1918;-70
2023/04/13 00:04:56;;;;;;;0.98;0.50;;;;;;;8.47;77.21;98337.44;348699;28;1419;-70
2023/04/13 00:05:10;;;;;;;1.40;0.50;;;;;;;8.45;77.30;98337.53;350451;28;1209;-71
2023/04/13 00:05:22;;;;;;;0.93;0.50;;;;;;;8.37;77.18;98345.59;350415;28;1045;-70
2023/04/13 00:05:35;;;;;;;0.60;0.50;;;;;;;8.42;77.28;98331.66;350265;28;1161;-70
2023/04/13 00:05:47;;;;;;;0.60;0.50;;;;;;;8.46;77.07;98334.03;350339;28;1115;-70
2023/04/13 00:06:01;;;;;;;1.00;0.40;;;;;;;8.50;76.99;98334.72;348113;28;771;-70
2023/04/13 00:06:13;;;;;;;1.40;0.35;;;;;;;8.43;76.66;98331.59;347813;28;1030;-70
2023/04/13 00:06:27;;;;;;;1.73;0.43;;;;;;;8.40;76.74;98337.69;348432;28;1545;-70
2023/04/13 00:06:41;;;;;;;0.70;0.40;;;;;;;8.44;76.85;98337.59;348790;28;1762;-71
2023/04/13 00:06:54;;;;;;;1.17;0.40;;;;;;;8.46;76.65;98336.59;349308;28;1382;-71
2023/04/13 00:07:06;;;;;;;1.08;0.30;;;;;;;8.44;76.70;98337.59;348775;28;1093;-71
2023/04/13 00:07:18;;;;;;;0.68;0.40;;;;;;;8.47;76.91;98337.44;349212;28;1215;-71
2023/04/13 00:07:32;;;;;;;1.20;0.40;;;;;;;8.51;76.59;98336.38;348833;28;1224;-71
2023/04/13 00:07:44;;;;;;;2.05;0.40;;;;;;;8.53;76.71;98331.97;348575;28;1672;-71
2023/04/13 00:08:01;;;;;;;1.88;0.40;;;;;;;8.47;76.67;98342.63;347703;28;2469;-71
2023/04/13 00:08:13;;;;;;;1.55;0.50;;;;;;;8.46;76.80;98335.78;347336;28;2121;-71
2023/04/13 00:08:25;;;;;;;1.10;0.50;;;;;;;8.39;77.17;98338.59;348275;28;2105;-70
2023/04/13 00:08:37;;;;;;;1.10;0.40;;;;;;;8.34;77.17;98337.97;350393;28;1204;-71
2023/04/13 00:08:53;;;;;;;1.83;0.43;;;;;;;8.34;77.60;98343.13;348910;28;1652;-71
2023/04/13 00:09:05;;;;;;;1.20;0.40;;;;;;;8.33;77.36;98341.47;349095;28;1050;-71
2023/04/13 00:09:17;;;;;;;0.45;0.38;;;;;;;8.38;77.43;98339.50;348649;28;1231;-71
2023/04/13 00:09:30;;;;;;;0.40;0.40;;;;;;;8.40;77.45;98324.75;348956;28;1085;-71
2023/04/13 00:09:44;;;;;;;0.90;0.40;;;;;;;8.38;77.27;98329.16;348593;28;2090;-71
2023/04/13 00:09:56;;;;;;;1.23;0.47;;;;;;;8.42;76.96;98342.84;349429;28;2009;-71
2023/04/13 00:10:09;;;;;;;0.93;0.50;;;;;;;8.44;76.93;98328.06;350265;28;1152;-71
2023/04/13 00:10:21;;;;;;;0.98;0.50;;;;;;;8.49;77.11;98340.81;350773;28;754;-71
2023/04/13 00:10:35;;;;;;;0.80;0.47;;;;;;;8.47;76.86;98340.03;348641;28;1705;-71
2023/04/13 00:10:47;;;;;;;0.50;0.40;;;;;;;8.43;77.43;98343.66;348281;28;2000;-70
2023/04/13 00:10:59;;;;;;;0.60;0.40;;;;;;;8.39;77.42;98330.84;349133;28;1097;-70
2023/04/13 00:11:12;;;;;;;0.68;0.43;;;;;;;8.33;77.68;98346.66;349105;28;1194;-70
2023/04/13 00:11:26;;;;;;;0.77;0.50;;;;;;;8.34;77.61;98337.97;348811;28;1246;-70
2023/04/13 00:11:38;;;;;;;1.73;0.50;;;;;;;8.39;77.60;98332.56;348723;28;986;-70
2023/04/13 00:11:50;;;;;;;1.65;0.50;;;;;;;8.39;77.66;98345.50;348959;28;1741;-70
2023/04/13 00:12:02;;;;;;;1.05;0.50;;;;;;;8.39;77.59;98340.34;348919;28;1219;-70
2023/04/13 00:12:14;;;;;;;1.20;0.50;;;;;;;8.48;77.51;98360.69;348520;28;1254;-71
2023/04/13 00:12:27;;;;;;;1.63;0.50;;;;;;;8.53;77.20;98342.34;347655;28;1090;-71
2023/04/13 00:12:42;;;;;;;1.30;0.50;;;;;;;8.50;76.67;98335.56;347711;28;1049;-70
2023/04/13 00:12:57;;;;;;;0.60;0.43;;;;;;;8.48;76.84;98339.13;348817;28;1422;-70
2023/04/13 00:13:09;;;;;;;1.40;0.50;;;;;;;8.49;77.15;98343.38;349300;28;1469;-71
2023/04/13 00:13:23;;;;;;;1.70;0.50;;;;;;;8.43;77.53;98335.91;349303;28;1072;-70
2023/04/13 00:13:39;;;;;;;1.20;0.40;;;;;;;8.38;77.46;98344.69;351802;28;1072;-71
2023/04/13 00:13:54;;;;;;;0.90;0.40;;;;;;;8.40;77.80;98347.22;351097;28;2196;-73
2023/04/13 00:14:06;;;;;;;1.42;0.43;;;;;;;8.43;77.75;98343.66;351649;28;1092;-72
2023/04/13 00:14:18;;;;;;;1.50;0.50;;;;;;;8.35;77.76;98342.25;350889;28;2030;-73
2023/04/13 00:14:32;;;;;;;1.45;0.50;;;;;;;8.36;77.82;98341.31;349235;28;1080;-72
2023/04/13 00:14:44;;;;;;;0.70;0.50;;;;;;;8.36;77.95;98338.72;349723;28;1726;-72
2023/04/13 00:14:56;;;;;;;0.70;0.47;;;;;;;8.37;77.86;98348.19;350388;28;1211;-72
2023/04/13 00:15:09;;;;;;;1.67;0.45;;;;;;;8.37;77.81;98342.16;350294;28;1054;-71
2023/04/13 00:15:21;;;;;;;2.03;0.50;;;;;;;8.32;78.12;98344.97;350330;28;1010;-72
2023/04/13 00:15:35;;;;;;;2.05;0.52;;;;;;;8.30;78.17;98341.59;350213;28;1436;-72
2023/04/13 00:15:47;;;;;;;0.73;0.50;;;;;;;8.33;78.30;98345.78;346191;28;7125;-72
2023/04/13 00:16:00;;;;;;;0.80;0.50;;;;;;;8.31;77.95;98347.59;349106;28;1421;-73
2023/04/13 00:16:14;;;;;;;0.52;0.38;;;;;;;8.29;77.86;98345.09;349008;28;1081;-72
2023/04/13 00:16:28;;;;;;;1.23;0.40;;;;;;;8.33;77.91;98336.28;348935;28;3566;-72
2023/04/13 00:16:41;;;;;;;1.45;0.50;;;;;;;8.36;78.12;98338.72;350496;28;1037;-72
2023/04/13 00:16:53;;;;;;;1.00;0.50;;;;;;;8.37;77.93;98337.84;349363;28;1424;-72
2023/04/13 00:17:05;;;;;;;0.90;0.60;;;;;;;8.38;78.01;98344.69;349033;28;1847;-73
2023/04/13 00:17:17;;;;;;;0.95;0.50;;;;;;;8.42;77.99;98349.78;350706;28;1061;-73
2023/04/13 00:17:29;;;;;;;0.80;0.40;;;;;;;8.40;77.84;98342.88;350835;28;999;-73
2023/04/13 00:17:42;;;;;;;1.38;0.50;;;;;;;8.38;78.02;98336.91;350339;28;1155;-72
2023/04/13 00:17:54;;;;;;;1.15;0.47;;;;;;;8.36;77.90;98341.31;350275;28;1200;-72
2023/04/13 00:18:07;;;;;;;0.40;0.40;;;;;;;8.37;77.94;98337.84;350160;28;1227;-72
2023/04/13 00:18:19;;;;;;;0.52;0.50;;;;;;;8.44;78.12;98351.38;350275;28;1593;-72
2023/04/13 00:18:31;;;;;;;1.02;0.50;;;;;;;8.39;77.61;98343.78;350289;28;1105;-72
2023/04/13 00:18:43;;;;;;;1.27;0.45;;;;;;;8.47;77.71;98337.44;350390;28;1176;-72
2023/04/13 00:18:55;;;;;;;1.40;0.43;;;;;;;8.48;77.66;98352.09;347481;28;1047;-72
2023/04/13 00:19:08;;;;;;;1.25;0.50;;;;;;;8.44;77.67;98337.59;347637;28;1036;-71
2023/04/13 00:19:20;;;;;;;1.00;0.43;;;;;;;8.47;77.61;98342.63;347523;28;1275;-73
2023/04/13 00:19:35;;;;;;;1.55;0.55;;;;;;;8.48;77.89;98344.31;347860;28;1077;-72
2023/04/13 00:19:47;;;;;;;1.80;0.60;;;;;;;8.42;77.79;98345.41;347852;28;1081;-72
2023/04/13 00:20:11;;;;;;;1.45;0.50;;;;;;;8.39;78.08;98340.34;347650;28;1196;-72
2023/04/13 00:20:23;;;;;;;0.90;0.40;;;;;;;8.39;78.16;98346.38;349138;28;2000;-71
2023/04/13 00:20:36;;;;;;;1.15;0.43;;;;;;;8.38;78.15;98344.69;349315;28;1042;-72
2023/04/13 00:20:49;;;;;;;1.27;0.50;;;;;;;8.38;78.18;98342.09;349205;28;1972;-72
2023/04/13 00:21:02;;;;;;;1.27;0.50;;;;;;;8.35;78.11;98347.41;349296;28;1241;-73
2023/04/13 00:21:15;;;;;;;1.10;0.40;;;;;;;8.37;78.05;98343.00;349336;28;1861;-72
2023/04/13 00:21:27;;;;;;;0.80;0.50;;;;;;;8.35;78.23;98343.97;349296;28;1100;-72
2023/04/13 00:21:52;;;;;;;0.93;0.50;;;;;;;8.44;78.09;98342.78;348545;28;1022;-72
2023/04/13 00:22:22;;;;;;;1.58;0.40;;;;;;;8.50;78.05;98337.31;347691;28;2439;-73
2023/04/13 00:22:58;;;;;;;1.75;0.40;;;;;;;8.50;77.86;98339.91;348684;28;1336;-73
2023/04/13 00:23:44;;;;;;;;;;;;;;;;;;;;;
2023/04/13 00:24:10;;;;;;;2.53;0.60;;;;;;;8.38;77.98;98347.28;347936;28;1184;-72
2023/04/13 00:24:36;;;;;;;1.30;0.50;;;;;;;8.40;78.01;98347.22;349068;28;1193;-72
2023/04/13 00:24:58;;;;;;;0.90;0.50;;;;;;;8.36;78.06;98343.06;350025;28;1205;-72
2023/04/13 00:25:15;;;;;;;0.70;0.47;;;;;;;8.43;77.60;98347.13;349727;28;2384;-72
2023/04/13 00:26:02;;;;;;;0.90;0.47;;;;;;;8.49;77.01;98344.25;350318;28;1750;-72
2023/04/13 00:26:32;;;;;;;1.45;0.60;;;;;;;8.46;77.17;98343.53;347582;28;1066;-73
2023/04/13 00:26:47;;;;;;;1.17;0.52;;;;;;;8.44;77.31;98347.94;348216;28;1565;-72
2023/04/13 00:27:00;;;;;;;1.05;0.50;;;;;;;8.42;77.31;98334.22;350180;28;1672;-73
2023/04/13 00:27:13;;;;;;;0.70;0.50;;;;;;;8.43;77.17;98335.91;347951;28;1108;-72
2023/04/13 00:27:26;;;;;;;0.77;0.50;;;;;;;8.43;77.15;98341.06;347585;28;1026;-71
2023/04/13 00:27:38;;;;;;;0.93;0.45;;;;;;;8.43;76.82;98341.94;348867;28;1093;-71
2023/04/13 00:27:51;;;;;;;0.90;0.50;;;;;;;8.46;76.68;98351.31;348764;28;1646;-73
2023/04/13 00:28:05;;;;;;;0.45;0.40;;;;;;;8.50;76.59;98337.31;348050;28;1239;-71
2023/04/13 00:28:17;;;;;;;1.08;0.40;;;;;;;8.55;76.35;98345.69;348942;28;1846;-73
2023/04/13 00:28:29;;;;;;;2.90;0.55;;;;;;;8.51;76.38;98344.16;348875;28;1929;-72
2023/04/13 00:28:41;;;;;;;2.40;0.55;;;;;;;8.48;76.40;98339.13;349078;28;1272;-72
2023/04/13 00:28:53;;;;;;;1.17;0.45;;;;;;;8.40;76.27;98337.69;349055;28;1290;-71
2023/04/13 00:29:06;;;;;;;0.90;0.40;;;;;;;8.44;76.53;98337.59;348942;28;1200;-72
2023/04/13 00:29:18;;;;;;;0.63;0.43;;;;;;;8.43;76.26;98347.13;348078;28;926;-72
2023/04/13 00:29:30;;;;;;;0.43;0.40;;;;;;;8.43;76.11;98343.66;348053;28;1736;-72
2023/04/13 00:29:42;;;;;;;1.98;0.45;;;;;;;8.46;75.75;98335.78;350356;28;1104;-71
2023/04/13 00:29:55;;;;;;;2.60;0.50;;;;;;;8.42;75.94;98344.59;348529;28;2108;-72
2023/04/13 00:30:16;;;;;;;1.70;0.50;;;;;;;8.38;75.87;98339.50;348144;28;1301;-72
2023/04/13 00:30:29;;;;;;;0.80;0.45;;;;;;;8.37;75.83;98343.00;348895;28;1093;-73
2023/04/13 00:30:41;;;;;;;0.60;0.50;;;;;;;8.40;75.94;98335.09;349091;28;1209;-73
2023/04/13 00:30:54;;;;;;;0.60;0.50;;;;;;;8.39;75.99;98346.38;347658;28;1297;-72
2023/04/13 00:31:06;;;;;;;0.68;0.45;;;;;;;8.33;75.91;98343.19;347826;28;1109;-72
2023/04/13 00:31:18;;;;;;;1.58;0.50;;;;;;;8.32;75.62;98341.53;347651;28;1120;-72
2023/04/13 00:31:30;;;;;;;1.75;0.50;;;;;;;8.27;75.82;98336.56;347603;28;2902;-74
2023/04/13 00:31:42;;;;;;;1.70;0.47;;;;;;;8.24;76.02;98336.69;348839;28;2910;-71
2023/04/13 00:31:54;;;;;;;1.70;0.45;;;;;;;8.25;75.89;98338.38;347876;28;1221;-71
2023/04/13 00:32:07;;;;;;;1.13;0.43;;;;;;;8.26;75.31;98344.41;347874;28;1251;-71
2023/04/13 00:32:19;;;;;;;1.00;0.40;;;;;;;8.25;75.10;98338.38;347715;28;5464;-72
2023/04/13 00:32:30;;;;;;;1.35;0.50;;;;;;;8.26;74.92;98342.63;348387;28;2169;-74
2023/04/13 00:32:44;;;;;;;1.20;0.47;;;;;;;8.26;74.42;98340.06;347572;28;2308;-72
2023/04/13 00:32:56;;;;;;;1.08;0.52;;;;;;;8.27;74.37;98333.13;347823;28;1065;-71
2023/04/13 00:33:08;;;;;;;1.50;0.50;;;;;;;8.29;74.46;98339.94;347906;28;1119;-71
2023/04/13 00:33:20;;;;;;;1.42;0.50;;;;;;;8.28;74.04;98333.06;348180;28;1235;-72
2023/04/13 00:33:32;;;;;;;1.27;0.50;;;;;;;8.29;74.27;98332.16;348839;28;1292;-72
2023/04/13 00:33:44;;;;;;;1.27;0.50;;;;;;;8.30;74.39;98336.41;347765;28;1994;-72
2023/04/13 00:33:56;;;;;;;0.88;0.50;;;;;;;8.28;74.19;98340.81;348864;28;1022;-74
2023/04/13 00:34:09;;;;;;;0.80;0.47;;;;;;;8.28;74.51;98334.81;348830;28;1101;-73
2023/04/13 00:34:21;;;;;;;0.80;0.40;;;;;;;8.32;74.29;98332.00;349018;28;1195;-72
2023/04/13 00:34:33;;;;;;;0.80;0.45;;;;;;;8.35;73.75;98337.06;348856;28;2189;-72
2023/04/13 00:34:45;;;;;;;1.25;0.55;;;;;;;8.31;73.90;98343.28;348792;28;1296;-72
2023/04/13 00:34:57;;;;;;;2.53;0.68;;;;;;;8.30;74.34;98340.75;348952;28;1281;-73
2023/04/13 00:35:10;;;;;;;2.33;0.60;;;;;;;8.27;74.04;98341.75;349175;28;1077;-72
2023/04/13 00:35:26;;;;;;;0.93;0.50;;;;;;;8.35;73.65;98336.19;348816;28;1053;-72
2023/04/13 00:35:38;;;;;;;2.05;0.40;;;;;;;8.32;73.37;98333.78;348976;28;1054;-72
2023/04/13 00:35:51;;;;;;;1.95;0.40;;;;;;;8.33;73.66;98333.72;348418;28;2135;-71
2023/04/13 00:36:03;;;;;;;1.20;0.40;;;;;;;8.35;73.39;98324.13;349905;28;1379;-72
2023/04/13 00:36:15;;;;;;;0.90;0.50;;;;;;;8.33;73.26;98325.06;350636;28;1133;-72
2023/04/13 00:36:27;;;;;;;1.63;0.52;;;;;;;8.31;73.13;98338.13;350354;28;1068;-72
2023/04/13 00:36:42;;;;;;;1.90;0.50;;;;;;;8.32;73.21;98334.59;350277;28;1042;-72
2023/04/13 00:36:54;;;;;;;3.10;0.50;;;;;;;8.34;73.18;98332.78;350061;28;2334;-72
2023/04/13 00:37:06;;;;;;;2.13;0.50;;;;;;;8.36;73.27;98325.78;350844;28;1659;-72
2023/04/13 00:37:19;;;;;;;1.30;0.50;;;;;;;8.43;73.02;98325.53;351900;28;1227;-72
2023/04/13 00:37:31;;;;;;;1.30;0.60;;;;;;;8.39;72.88;98330.84;351758;28;1239;-73
2023/04/13 00:37:46;;;;;;;1.40;0.60;;;;;;;8.39;73.12;98336.03;351357;28;1838;-72
2023/04/13 00:37:59;;;;;;;1.55;0.60;;;;;;;8.39;73.10;98328.25;350489;28;984;-73
2023/04/13 00:38:11;;;;;;;1.08;0.47;;;;;;;8.37;72.70;98327.47;350476;28;1790;-72
2023/04/13 00:38:26;;;;;;;0.98;0.40;;;;;;;8.33;72.33;98335.44;348430;28;1832;-72
2023/04/13 00:38:38;;;;;;;1.15;0.45;;;;;;;8.28;72.57;98338.22;347753;28;1124;-72
2023/04/13 00:38:53;;;;;;;1.50;0.50;;;;;;;8.30;72.52;98333.81;347587;28;1260;-72
2023/04/13 00:39:05;;;;;;;1.17;0.60;;;;;;;8.35;72.05;98329.31;347851;28;1048;-72
2023/04/13 00:39:21;;;;;;;0.68;0.55;;;;;;;8.37;71.77;98332.66;347447;28;1293;-72
2023/04/13 00:39:33;;;;;;;0.52;0.40;;;;;;;8.35;71.99;98339.66;347719;28;1251;-72
2023/04/13 00:39:45;;;;;;;0.52;0.43;;;;;;;8.34;72.22;98337.97;347233;28;1863;-73
2023/04/13 00:39:58;;;;;;;0.70;0.50;;;;;;;8.33;72.27;98335.44;347442;28;1050;-72
2023/04/13 00:40:10;;;;;;;1.10;0.40;;;;;;;8.35;71.86;98333.63;348333;28;2062;-72
2023/04/13 00:40:23;;;;;;;1.70;0.50;;;;;;;8.35;72.05;98342.25;348907;28;1832;-72
2023/04/13 00:40:36;;;;;;;1.08;0.40;;;;;;;8.37;72.02;98327.47;348940;28;1007;-72
2023/04/13 00:40:48;;;;;;;1.10;0.40;;;;;;;8.38;72.17;98325.72;349292;28;1679;-72
2023/04/13 00:41:01;;;;;;;0.80;0.40;;;;;;;8.38;72.02;98328.31;348965;28;1334;-72
2023/04/13 00:41:13;;;;;;;0.75;0.40;;;;;;;8.42;71.86;98323.88;349014;28;1058;-73
2023/04/13 00:41:25;;;;;;;0.82;0.40;;;;;;;8.48;71.28;98321.84;349225;28;1238;-72
2023/04/13 00:41:37;;;;;;;1.30;0.50;;;;;;;8.51;71.25;98328.63;349317;28;1136;-71
2023/04/13 00:41:52;;;;;;;1.38;0.40;;;;;;;8.51;71.26;98326.03;349360;28;2114;-72
2023/04/13 00:42:06;;;;;;;2.15;0.40;;;;;;;8.55;71.03;98330.16;349754;28;1207;-72
2023/04/13 00:42:18;;;;;;;2.33;0.50;;;;;;;8.55;70.92;98320.66;347776;28;1019;-71
2023/04/13 00:42:30;;;;;;;1.70;0.50;;;;;;;8.53;70.71;98337.16;347287;28;1755;-72
2023/04/13 00:42:44;;;;;;;2.20;0.50;;;;;;;8.53;71.03;98322.47;345362;28;1675;-73
2023/04/13 00:42:56;;;;;;;1.67;0.40;;;;;;;8.47;71.02;98327.94;347108;28;1812;-71
2023/04/13 00:43:08;;;;;;;2.63;0.50;;;;;;;8.40;71.40;98331.66;348700;28;1877;-72
2023/04/13 00:43:20;;;;;;;2.30;0.50;;;;;;;8.38;70.83;98331.72;347104;28;2438;-72
2023/04/13 00:43:32;;;;;;;2.60;0.60;;;;;;;8.40;70.90;98332.50;347114;28;1663;-72
2023/04/13 00:43:44;;;;;;;1.75;0.52;;;;;;;8.39;70.45;98332.56;346455;28;1679;-72
2023/04/13 00:43:57;;;;;;;1.30;0.47;;;;;;;8.49;70.21;98331.31;347380;28;1201;-71
2023/04/13 00:44:10;;;;;;;0.90;0.60;;;;;;;8.46;70.12;98322.81;348479;28;1187;-74
2023/04/13 00:44:22;;;;;;;1.23;0.60;;;;;;;8.50;70.41;98332.97;349022;28;1162;-72
2023/04/13 00:44:35;;;;;;;1.35;0.50;;;;;;;8.54;70.16;98331.09;349276;28;1222;-72
2023/04/13 00:44:47;;;;;;;3.05;1.10;;;;;;;8.53;70.40;98324.22;349092;28;1074;-72
2023/04/13 00:44:59;;;;;;;4.15;1.10;;;;;;;8.48;70.48;98324.44;348939;28;1644;-74
2023/04/13 00:45:12;;;;;;;3.33;0.73;;;;;;;8.46;70.61;98330.59;350673;28;1977;-73
2023/04/13 00:45:25;;;;;;;3.10;0.57;;;;;;;8.46;70.51;98326.25;350380;28;1426;-72
2023/04/13 00:45:38;;;;;;;1.40;0.47;;;;;;;8.39;70.34;98328.25;350139;28;1311;-72
2023/04/13 00:45:50;;;;;;;0.82;0.40;;;;;;;8.46;70.09;98330.59;351145;28;1642;-72
2023/04/13 00:46:02;;;;;;;0.90;0.60;;;;;;;8.45;70.08;98328.91;350571;28;1192;-72
2023/04/13 00:46:15;;;;;;;1.02;0.70;;;;;;;8.48;70.18;98328.78;350017;28;1081;-72
2023/04/13 00:46:28;;;;;;;1.70;0.55;;;;;;;8.42;70.32;98329.88;350162;28;1318;-71
2023/04/13 00:46:41;;;;;;;1.60;0.40;;;;;;;8.40;70.48;98322.16;350307;28;1250;-72
2023/04/13 00:47:03;;;;;;;0.88;0.40;;;;;;;8.37;70.83;98332.66;350215;28;1433;-72
2023/04/13 00:47:25;;;;;;;0.82;0.43;;;;;;;8.36;70.71;98323.19;349508;28;1202;-73
2023/04/13 00:47:37;;;;;;;1.55;0.55;;;;;;;8.33;70.63;98333.72;347491;28;1832;-73
2023/04/13 00:47:50;;;;;;;2.50;0.55;;;;;;;8.32;70.64;98319.06;345002;28;4962;-74
2023/04/13 00:48:03;;;;;;;1.88;0.50;;;;;;;8.38;70.34;98318.78;348470;28;1546;-72
2023/04/13 00:48:16;;;;;;;1.60;0.47;;;;;;;8.39;70.60;98330.84;346257;28;1152;-72
2023/04/13 00:48:28;;;;;;;1.10;0.50;;;;;;;8.44;70.58;98322.06;346933;28;2791;-72
2023/04/13 00:48:40;;;;;;;1.25;0.60;;;;;;;8.46;70.26;98326.25;347730;28;1054;-72
2023/04/13 00:48:54;;;;;;;1.98;0.57;;;;;;;8.44;70.42;98322.06;346282;28;1147;-72
2023/04/13 00:49:07;;;;;;;1.90;0.57;;;;;;;8.43;70.31;98325.53;347432;28;1199;-72
2023/04/13 00:49:21;;;;;;;1.08;0.50;;;;;;;8.39;70.16;98328.25;347789;28;760;-72
2023/04/13 00:49:34;;;;;;;0.85;0.40;;;;;;;8.40;70.11;98331.66;347240;28;2086;-71
2023/04/13 00:49:46;;;;;;;2.40;0.50;;;;;;;8.42;69.71;98314.34;348987;28;2786;-72
2023/04/13 00:50:02;;;;;;;2.45;0.52;;;;;;;8.44;69.65;98337.59;348795;28;1062;-72
2023/04/13 00:50:19;;;;;;;1.13;0.60;;;;;;;8.47;69.61;98329.66;348880;28;1196;-72
2023/04/13 00:50:33;;;;;;;1.50;0.65;;;;;;;8.46;69.38;98336.59;348638;28;1270;-73
2023/04/13 00:50:45;;;;;;;1.88;0.50;;;;;;;8.42;69.76;98329.88;348883;28;1603;-72
2023/04/13 00:50:57;;;;;;;1.58;0.40;;;;;;;8.46;69.78;98330.59;349365;28;1263;-72
2023/04/13 00:51:09;;;;;;;1.55;0.47;;;;;;;8.48;69.89;98333.97;349019;28;1707;-73
2023/04/13 00:51:22;;;;;;;1.55;0.50;;;;;;;8.43;69.89;98326.41;348924;28;1638;-73
2023/04/13 00:51:34;;;;;;;1.75;0.50;;;;;;;8.44;69.84;98332.41;349091;28;1236;-72
2023/04/13 00:51:46;;;;;;;1.70;0.50;;;;;;;8.39;69.71;98330.84;349089;28;1275;-72
2023/04/13 00:52:11;;;;;;;1.70;0.50;;;;;;;8.38;69.50;98329.16;349150;28;1235;-72
2023/04/13 00:52:23;;;;;;;1.40;0.50;;;;;;;8.30;70.06;98331.25;347833;28;1246;-71
2023/04/13 00:52:37;;;;;;;0.80;0.50;;;;;;;8.35;70.09;98336.19;347716;28;1070;-72
2023/04/13 00:52:49;;;;;;;1.20;0.50;;;;;;;8.30;70.29;98333.00;348088;28;1441;-72
2023/04/13 00:53:03;;;;;;;1.80;0.50;;;;;;;8.30;70.17;98338.19;349304;28;1117;-72
2023/04/13 00:53:16;;;;;;;1.83;0.50;;;;;;;8.31;69.64;98338.13;348826;28;1025;-73
2023/04/13 00:53:28;;;;;;;1.27;0.40;;;;;;;8.36;69.77;98340.50;348786;28;1042;-72
2023/04/13 00:53:42;;;;;;;2.03;0.50;;;;;;;8.31;69.99;98339.84;349033;28;2107;-72
2023/04/13 00:53:56;;;;;;;1.90;0.50;;;;;;;8.32;69.92;98328.59;348906;28;3342;-72
2023/04/13 00:54:12;;;;;;;1.23;0.50;;;;;;;8.27;69.95;98341.75;349440;28;1102;-72
2023/04/13 00:54:24;;;;;;;1.50;0.43;;;;;;;8.29;69.80;98339.94;348741;28;1493;-73
2023/04/13 00:54:37;;;;;;;1.10;0.40;;;;;;;8.30;69.98;98341.59;349088;28;1263;-72
2023/04/13 00:54:50;;;;;;;0.47;0.30;;;;;;;8.28;70.12;98340.81;347634;28;1908;-73
2023/04/13 00:55:03;;;;;;;1.00;0.30;;;;;;;8.28;69.91;98327.88;347307;28;1214;-72
2023/04/13 00:55:19;;;;;;;1.40;0.32;;;;;;;8.29;69.86;98334.75;347388;28;932;-72
2023/04/13 00:55:32;;;;;;;2.78;0.47;;;;;;;8.29;69.70;98337.34;347486;28;1018;-72
2023/04/13 00:55:44;;;;;;;2.90;0.50;;;;;;;8.30;69.65;98339.00;347730;28;1554;-72
2023/04/13 00:55:57;;;;;;;1.10;0.50;;;;;;;8.32;69.75;98344.97;347681;28;1344;-72
2023/04/13 00:56:09;;;;;;;1.10;0.43;;;;;;;8.29;69.96;98334.75;347333;28;1573;-72
2023/04/13 00:56:26;;;;;;;1.90;0.50;;;;;;;8.32;69.72;98339.78;347586;28;1338;-71
2023/04/13 00:56:37;;;;;;;1.70;0.40;;;;;;;8.35;69.80;98343.97;348894;28;1027;-73
2023/04/13 00:56:50;;;;;;;2.05;0.45;;;;;;;8.36;69.66;98338.72;348531;28;1261;-73
2023/04/13 00:57:03;;;;;;;2.15;0.40;;;;;;;8.33;69.66;98333.72;348799;28;1346;-72
2023/04/13 00:57:16;;;;;;;1.25;0.50;;;;;;;8.38;69.55;98339.50;348874;28;1054;-72
2023/04/13 00:57:28;;;;;;;1.30;0.60;;;;;;;8.39;69.62;98348.97;348929;28;1062;-72
2023/04/13 00:57:40;;;;;;;1.33;0.40;;;;;;;8.40;69.61;98337.69;349243;28;1309;-73
2023/04/13 00:57:52;;;;;;;1.40;0.43;;;;;;;8.41;69.48;98333.41;349163;28;1255;-72
2023/04/13 00:58:05;;;;;;;2.28;0.50;;;;;;;8.41;69.04;98343.75;349096;28;1738;-71
2023/04/13 00:58:17;;;;;;;2.38;0.50;;;;;;;8.42;69.02;98329.06;349479;28;842;-72
2023/04/13 00:58:29;;;;;;;1.92;0.50;;;;;;;8.45;68.56;98339.25;348568;28;1658;-72
2023/04/13 00:58:41;;;;;;;1.00;0.40;;;;;;;8.39;68.66;98338.59;349015;28;1041;-72
2023/04/13 00:58:55;;;;;;;1.00;0.40;;;;;;;8.43;68.59;98335.91;348897;28;1101;-72
2023/04/13 00:59:10;;;;;;;1.33;0.47;;;;;;;8.48;68.35;98328.78;348779;28;1014;-72
2023/04/13 00:59:25;;;;;;;3.17;0.50;;;;;;;8.46;68.11;98333.19;349377;28;1650;-72
2023/04/13 00:59:37;;;;;;;2.92;0.52;;;;;;;8.39;68.54;98330.84;350056;28;946;-71
2023/04/13 00:59:51;;;;;;;1.42;0.40;;;;;;;8.46;67.95;98333.19;349497;28;1020;-71
2023/04/13 01:00:05;;;;;;;0.30;0.30;;;;;;;8.42;68.25;98335.06;349201;28;1844;-72
2023/04/13 01:00:20;;;;;;;1.40;0.40;;;;;;;8.42;68.38;98336.81;349093;28;1442;-72
2023/04/13 01:00:32;;;;;;;1.55;0.43;;;;;;;8.44;68.22;98347.94;348763;28;1137;-72
2023/04/13 01:00:44;;;;;;;0.88;0.40;;;;;;;8.44;68.13;98337.59;348772;28;1842;-72
2023/04/13 01:00:56;;;;;;;1.08;0.50;;;;;;;8.44;68.19;98335.84;348686;28;1476;-72
2023/04/13 01:01:08;;;;;;;0.90;0.50;;;;;;;8.48;68.07;98334.78;348980;28;1065;-72
2023/04/13 01:01:20;;;;;;;0.63;0.40;;;;;;;8.53;67.53;98338.03;348617;28;1819;-72
2023/04/13 01:01:32;;;;;;;1.13;0.50;;;;;;;8.53;67.69;98334.56;347778;28;1080;-72
2023/04/13 01:01:45;;;;;;;1.40;0.57;;;;;;;8.52;67.93;98335.50;347991;28;1866;-71
2023/04/13 01:02:00;;;;;;;1.48;0.52;;;;;;;8.46;68.10;98336.59;349308;28;1263;-72
2023/04/13 01:02:14;;;;;;;1.50;0.60;;;;;;;8.38;68.80;98333.50;349204;28;1001;-72
2023/04/13 01:02:28;;;;;;;1.55;0.55;;;;;;;8.34;69.43;98340.56;348756;28;2086;-72
2023/04/13 01:02:40;;;;;;;1.00;0.30;;;;;;;8.35;69.10;98338.78;348995;28;1065;-72
2023/04/13 01:02:53;;;;;;;0.73;0.32;;;;;;;8.34;69.23;98340.56;348760;28;1261;-72
2023/04/13 01:03:06;;;;;;;1.10;0.40;;;;;;;8.35;68.66;98333.63;348439;28;1634;-72
2023/04/13 01:03:20;;;;;;;1.10;0.55;;;;;;;8.42;68.70;98334.22;347473;28;1094;-73
2023/04/13 01:03:32;;;;;;;0.95;0.60;;;;;;;8.39;68.55;98346.38;347567;28;1063;-72
2023/04/13 01:03:44;;;;;;;0.80;0.50;;;;;;;8.36;68.53;98336.13;348194;28;1645;-72
2023/04/13 01:03:56;;;;;;;0.70;0.40;;;;;;;8.36;68.41;98335.31;347591;28;1230;-72
2023/04/13 01:04:08;;;;;;;0.95;0.40;;;;;;;8.35;68.45;98336.19;347411;28;1522;-73
2023/04/13 01:04:24;;;;;;;1.55;0.30;;;;;;;8.29;68.30;98334.75;348988;28;1022;-72
2023/04/13 01:04:36;;;;;;;1.65;0.40;;;;;;;8.30;68.68;98344.19;347737;28;1276;-72
2023/04/13 01:04:49;;;;;;;1.58;0.50;;;;;;;8.29;68.84;98336.47;348300;28;1581;-72
2023/04/13 01:05:05;;;;;;;2.92;0.60;;;;;;;8.30;69.08;98340.75;348870;28;1567;-72
2023/04/13 01:05:17;;;;;;;2.67;0.45;;;;;;;8.26;69.38;98337.47;349125;28;1069;-72
2023/04/13 01:05:36;;;;;;;1.75;0.40;;;;;;;8.22;69.69;98348.88;350301;28;1322;-72
2023/04/13 01:05:52;;;;;;;1.35;0.40;;;;;;;8.25;69.27;98340.97;348457;28;2207;-72
2023/04/13 01:06:04;;;;;;;2.50;0.40;;;;;;;8.25;69.54;98338.38;347611;28;4155;-72
2023/04/13 01:06:30;;;;;;;2.25;0.40;;;;;;;8.29;68.89;98333.88;348366;28;709;-72
2023/04/13 01:06:49;;;;;;;1.42;0.40;;;;;;;8.31;68.91;98335.53;348472;28;1455;-71
2023/04/13 01:07:46;;;;;;;1.17;0.43;;;;;;;8.32;68.57;98339.78;348409;28;2146;-71
2023/04/13 01:08:13;;;;;;;1.00;0.40;;;;;;;8.34;68.71;98337.13;344827;28;1544;-71